sensor_id;sensor_type;location;lat;lon;timestamp;P1;P2;P0
59546;PMS5003;45368;55.002;-1.592;2022-10-17T00:00:11;4;2;
59546;PMS5003;45368;55.002;-1.592;2022-10-17T00:02:38;2;0;
59546;PMS5003;45368;55.002;-1.592;2022-10-17T00:05:05;3;2;
59546;PMS5003;45368;55.002;-1.592;2022-10-17T00:07:33;5;1;
59546;PMS5003;45368;55.002;-1.592;2022-10-17T00:10:00;3;1;
59546;PMS5003;45368;55.002;-1.592;2022-10-17T00:12:27;1;0;
59546;PMS5003;45368;55.002;-1.592;2022-10-17T00:14:54;3;2;
59546;PMS5003;45368;55.002;-1.592;2022-10-17T00:17:21;2;2;
59546;PMS5003;45368;55.002;-1.592;2022-10-17T00:19:48;2;1;
59546;PMS5003;45368;55.002;-1.592;2022-10-17T00:22:15;2;2;
59546;PMS5003;45368;55.002;-1.592;2022-10-17T00:24:42;2;2;
59546;PMS5003;45368;55.002;-1.592;2022-10-17T00:27:09;10;2;
59546;PMS5003;45368;55.002;-1.592;2022-10-17T00:29:36;8;4;
59546;PMS5003;45368;55.002;-1.592;2022-10-17T00:32:03;6;4;
59546;PMS5003;45368;55.002;-1.592;2022-10-17T00:34:31;2;2;
59546;PMS5003;45368;55.002;-1.592;2022-10-17T00:36:57;6;4;
59546;PMS5003;45368;55.002;-1.592;2022-10-17T00:39:24;3;3;
59546;PMS5003;45368;55.002;-1.592;2022-10-17T00:41:52;4;3;
59546;PMS5003;45368;55.002;-1.592;2022-10-17T00:45:24;3;3;
59546;PMS5003;45368;55.002;-1.592;2022-10-17T00:47:53;3;2;
59546;PMS5003;45368;55.002;-1.592;2022-10-17T00:50:26;4;3;
59546;PMS5003;45368;55.002;-1.592;2022-10-17T00:52:53;0;0;
59546;PMS5003;45368;55.002;-1.592;2022-10-17T00:55:23;1;0;
59546;PMS5003;45368;55.002;-1.592;2022-10-17T00:57:53;3;1;
59546;PMS5003;45368;55.002;-1.592;2022-10-17T01:00:21;5;2;
59546;PMS5003;45368;55.002;-1.592;2022-10-17T01:02:50;4;3;
59546;PMS5003;45368;55.002;-1.592;2022-10-17T01:05:18;3;2;
59546;PMS5003;45368;55.002;-1.592;2022-10-17T01:07:47;1;1;
59546;PMS5003;45368;55.002;-1.592;2022-10-17T01:10:17;4;2;
59546;PMS5003;45368;55.002;-1.592;2022-10-17T01:12:47;2;2;
59546;PMS5003;45368;55.002;-1.592;2022-10-17T01:15:25;4;3;
59546;PMS5003;45368;55.002;-1.592;2022-10-17T01:18:07;6;3;
59546;PMS5003;45368;55.002;-1.592;2022-10-17T01:20:47;5;4;
59546;PMS5003;45368;55.002;-1.592;2022-10-17T01:23:34;5;5;
59546;PMS5003;45368;55.002;-1.592;2022-10-17T01:26:22;8;6;
59546;PMS5003;45368;55.002;-1.592;2022-10-17T01:29:03;7;7;
59546;PMS5003;45368;55.002;-1.592;2022-10-17T01:31:45;8;8;
59546;PMS5003;45368;55.002;-1.592;2022-10-17T01:34:18;7;7;
59546;PMS5003;45368;55.002;-1.592;2022-10-17T01:36:52;12;11;
59546;PMS5003;45368;55.002;-1.592;2022-10-17T01:39:24;10;10;
59546;PMS5003;45368;55.002;-1.592;2022-10-17T01:42:05;10;9;
59546;PMS5003;45368;55.002;-1.592;2022-10-17T01:44:40;13;12;
59546;PMS5003;45368;55.002;-1.592;2022-10-17T01:47:14;13;13;
59546;PMS5003;45368;55.002;-1.592;2022-10-17T01:49:46;14;14;
59546;PMS5003;45368;55.002;-1.592;2022-10-17T01:52:18;12;12;
59546;PMS5003;45368;55.002;-1.592;2022-10-17T01:54:50;15;14;
59546;PMS5003;45368;55.002;-1.592;2022-10-17T01:57:22;13;12;
59546;PMS5003;45368;55.002;-1.592;2022-10-17T01:59:53;15;14;
59546;PMS5003;45368;55.002;-1.592;2022-10-17T02:02:22;16;15;
59546;PMS5003;45368;55.002;-1.592;2022-10-17T02:04:50;18;16;
59546;PMS5003;45368;55.002;-1.592;2022-10-17T02:07:20;15;15;
59546;PMS5003;45368;55.002;-1.592;2022-10-17T02:09:47;17;16;
59546;PMS5003;45368;55.002;-1.592;2022-10-17T02:12:20;18;17;
59546;PMS5003;45368;55.002;-1.592;2022-10-17T02:15:05;18;16;
59546;PMS5003;45368;55.002;-1.592;2022-10-17T02:17:44;17;17;
59546;PMS5003;45368;55.002;-1.592;2022-10-17T02:20:20;13;12;
59546;PMS5003;45368;55.002;-1.592;2022-10-17T02:22:51;15;15;
59546;PMS5003;45368;55.002;-1.592;2022-10-17T02:25:28;16;16;
59546;PMS5003;45368;55.002;-1.592;2022-10-17T02:28:05;17;17;
59546;PMS5003;45368;55.002;-1.592;2022-10-17T02:30:42;18;17;
59546;PMS5003;45368;55.002;-1.592;2022-10-17T02:33:17;19;17;
59546;PMS5003;45368;55.002;-1.592;2022-10-17T02:35:48;17;16;
59546;PMS5003;45368;55.002;-1.592;2022-10-17T02:38:20;18;18;
59546;PMS5003;45368;55.002;-1.592;2022-10-17T02:40:51;20;17;
59546;PMS5003;45368;55.002;-1.592;2022-10-17T02:43:19;19;19;
59546;PMS5003;45368;55.002;-1.592;2022-10-17T02:45:48;18;18;
59546;PMS5003;45368;55.002;-1.592;2022-10-17T02:48:17;22;22;
59546;PMS5003;45368;55.002;-1.592;2022-10-17T02:50:56;19;19;
59546;PMS5003;45368;55.002;-1.592;2022-10-17T02:53:33;20;18;
59546;PMS5003;45368;55.002;-1.592;2022-10-17T02:56:11;17;16;
59546;PMS5003;45368;55.002;-1.592;2022-10-17T02:58:44;17;16;
59546;PMS5003;45368;55.002;-1.592;2022-10-17T03:01:16;14;12;
59546;PMS5003;45368;55.002;-1.592;2022-10-17T03:03:44;14;14;
59546;PMS5003;45368;55.002;-1.592;2022-10-17T03:06:12;13;13;
59546;PMS5003;45368;55.002;-1.592;2022-10-17T03:08:39;15;13;
59546;PMS5003;45368;55.002;-1.592;2022-10-17T03:11:05;12;11;
59546;PMS5003;45368;55.002;-1.592;2022-10-17T03:13:33;16;15;
59546;PMS5003;45368;55.002;-1.592;2022-10-17T03:16:01;16;15;
59546;PMS5003;45368;55.002;-1.592;2022-10-17T03:18:28;13;13;
59546;PMS5003;45368;55.002;-1.592;2022-10-17T03:20:55;12;12;
59546;PMS5003;45368;55.002;-1.592;2022-10-17T03:23:21;11;11;
59546;PMS5003;45368;55.002;-1.592;2022-10-17T03:25:48;14;13;
59546;PMS5003;45368;55.002;-1.592;2022-10-17T03:28:16;16;14;
59546;PMS5003;45368;55.002;-1.592;2022-10-17T03:30:43;13;13;
59546;PMS5003;45368;55.002;-1.592;2022-10-17T03:33:09;12;12;
59546;PMS5003;45368;55.002;-1.592;2022-10-17T03:35:37;14;14;
59546;PMS5003;45368;55.002;-1.592;2022-10-17T03:38:04;11;11;
59546;PMS5003;45368;55.002;-1.592;2022-10-17T03:40:31;14;14;
59546;PMS5003;45368;55.002;-1.592;2022-10-17T03:42:58;14;13;
59546;PMS5003;45368;55.002;-1.592;2022-10-17T03:45:24;14;13;
59546;PMS5003;45368;55.002;-1.592;2022-10-17T03:47:51;17;16;
59546;PMS5003;45368;55.002;-1.592;2022-10-17T03:50:19;14;12;
59546;PMS5003;45368;55.002;-1.592;2022-10-17T03:52:46;15;14;
59546;PMS5003;45368;55.002;-1.592;2022-10-17T03:55:14;14;14;
59546;PMS5003;45368;55.002;-1.592;2022-10-17T03:57:41;16;16;
59546;PMS5003;45368;55.002;-1.592;2022-10-17T04:00:09;19;19;
59546;PMS5003;45368;55.002;-1.592;2022-10-17T04:02:37;15;14;
59546;PMS5003;45368;55.002;-1.592;2022-10-17T04:05:04;15;15;
59546;PMS5003;45368;55.002;-1.592;2022-10-17T04:07:33;14;13;
59546;PMS5003;45368;55.002;-1.592;2022-10-17T04:09:59;16;14;
59546;PMS5003;45368;55.002;-1.592;2022-10-17T04:12:27;12;12;
59546;PMS5003;45368;55.002;-1.592;2022-10-17T04:14:54;14;13;
59546;PMS5003;45368;55.002;-1.592;2022-10-17T04:17:21;12;12;
59546;PMS5003;45368;55.002;-1.592;2022-10-17T04:19:48;12;12;
59546;PMS5003;45368;55.002;-1.592;2022-10-17T04:22:15;16;16;
59546;PMS5003;45368;55.002;-1.592;2022-10-17T04:24:42;9;9;
59546;PMS5003;45368;55.002;-1.592;2022-10-17T04:27:09;10;10;
59546;PMS5003;45368;55.002;-1.592;2022-10-17T04:29:36;13;11;
59546;PMS5003;45368;55.002;-1.592;2022-10-17T04:32:04;13;12;
59546;PMS5003;45368;55.002;-1.592;2022-10-17T04:34:31;13;13;
59546;PMS5003;45368;55.002;-1.592;2022-10-17T04:36:58;11;11;
59546;PMS5003;45368;55.002;-1.592;2022-10-17T04:39:24;11;10;
59546;PMS5003;45368;55.002;-1.592;2022-10-17T04:41:52;10;9;
59546;PMS5003;45368;55.002;-1.592;2022-10-17T04:44:19;11;10;
59546;PMS5003;45368;55.002;-1.592;2022-10-17T04:46:46;8;7;
59546;PMS5003;45368;55.002;-1.592;2022-10-17T04:49:13;8;7;
59546;PMS5003;45368;55.002;-1.592;2022-10-17T04:51:39;10;9;
59546;PMS5003;45368;55.002;-1.592;2022-10-17T04:54:07;7;7;
59546;PMS5003;45368;55.002;-1.592;2022-10-17T04:56:34;8;7;
59546;PMS5003;45368;55.002;-1.592;2022-10-17T04:59:01;6;6;
59546;PMS5003;45368;55.002;-1.592;2022-10-17T05:01:28;6;6;
59546;PMS5003;45368;55.002;-1.592;2022-10-17T05:03:55;8;8;
59546;PMS5003;45368;55.002;-1.592;2022-10-17T05:06:23;6;5;
59546;PMS5003;45368;55.002;-1.592;2022-10-17T05:08:51;8;6;
59546;PMS5003;45368;55.002;-1.592;2022-10-17T05:11:21;3;3;
59546;PMS5003;45368;55.002;-1.592;2022-10-17T05:13:50;6;6;
59546;PMS5003;45368;55.002;-1.592;2022-10-17T05:16:18;4;4;
59546;PMS5003;45368;55.002;-1.592;2022-10-17T05:18:47;3;3;
59546;PMS5003;45368;55.002;-1.592;2022-10-17T05:21:15;7;6;
59546;PMS5003;45368;55.002;-1.592;2022-10-17T05:23:43;3;3;
59546;PMS5003;45368;55.002;-1.592;2022-10-17T05:26:11;4;4;
59546;PMS5003;45368;55.002;-1.592;2022-10-17T05:28:39;4;4;
59546;PMS5003;45368;55.002;-1.592;2022-10-17T05:31:07;4;4;
59546;PMS5003;45368;55.002;-1.592;2022-10-17T05:33:36;4;4;
59546;PMS5003;45368;55.002;-1.592;2022-10-17T05:36:03;4;4;
59546;PMS5003;45368;55.002;-1.592;2022-10-17T05:38:32;6;5;
59546;PMS5003;45368;55.002;-1.592;2022-10-17T05:41:00;3;3;
59546;PMS5003;45368;55.002;-1.592;2022-10-17T05:43:29;3;3;
59546;PMS5003;45368;55.002;-1.592;2022-10-17T05:45:57;2;2;
59546;PMS5003;45368;55.002;-1.592;2022-10-17T05:48:24;4;4;
59546;PMS5003;45368;55.002;-1.592;2022-10-17T05:50:56;3;3;
59546;PMS5003;45368;55.002;-1.592;2022-10-17T05:53:23;3;3;
59546;PMS5003;45368;55.002;-1.592;2022-10-17T05:55:54;2;2;
59546;PMS5003;45368;55.002;-1.592;2022-10-17T05:58:22;2;2;
59546;PMS5003;45368;55.002;-1.592;2022-10-17T06:00:49;2;2;
59546;PMS5003;45368;55.002;-1.592;2022-10-17T06:03:16;2;2;
59546;PMS5003;45368;55.002;-1.592;2022-10-17T06:05:43;3;3;
59546;PMS5003;45368;55.002;-1.592;2022-10-17T06:08:09;2;1;
59546;PMS5003;45368;55.002;-1.592;2022-10-17T06:10:37;2;1;
59546;PMS5003;45368;55.002;-1.592;2022-10-17T06:13:04;2;0;
59546;PMS5003;45368;55.002;-1.592;2022-10-17T06:15:31;4;2;
59546;PMS5003;45368;55.002;-1.592;2022-10-17T06:17:58;2;1;
59546;PMS5003;45368;55.002;-1.592;2022-10-17T06:20:24;2;1;
59546;PMS5003;45368;55.002;-1.592;2022-10-17T06:22:51;1;0;
59546;PMS5003;45368;55.002;-1.592;2022-10-17T06:25:18;0;0;
59546;PMS5003;45368;55.002;-1.592;2022-10-17T06:27:45;1;1;
59546;PMS5003;45368;55.002;-1.592;2022-10-17T06:30:12;1;1;
59546;PMS5003;45368;55.002;-1.592;2022-10-17T06:32:39;0;0;
59546;PMS5003;45368;55.002;-1.592;2022-10-17T06:35:06;3;1;
59546;PMS5003;45368;55.002;-1.592;2022-10-17T06:37:33;0;0;
59546;PMS5003;45368;55.002;-1.592;2022-10-17T06:40:00;1;0;
59546;PMS5003;45368;55.002;-1.592;2022-10-17T06:42:28;2;1;
59546;PMS5003;45368;55.002;-1.592;2022-10-17T06:44:54;2;1;
59546;PMS5003;45368;55.002;-1.592;2022-10-17T06:47:21;0;0;
59546;PMS5003;45368;55.002;-1.592;2022-10-17T06:49:48;2;2;
59546;PMS5003;45368;55.002;-1.592;2022-10-17T06:52:15;3;2;
59546;PMS5003;45368;55.002;-1.592;2022-10-17T06:54:43;1;0;
59546;PMS5003;45368;55.002;-1.592;2022-10-17T06:57:09;3;2;
59546;PMS5003;45368;55.002;-1.592;2022-10-17T06:59:36;1;1;
59546;PMS5003;45368;55.002;-1.592;2022-10-17T07:02:03;1;1;
59546;PMS5003;45368;55.002;-1.592;2022-10-17T07:04:31;2;1;
59546;PMS5003;45368;55.002;-1.592;2022-10-17T07:06:59;1;1;
59546;PMS5003;45368;55.002;-1.592;2022-10-17T07:09:25;5;1;
59546;PMS5003;45368;55.002;-1.592;2022-10-17T07:11:52;1;1;
59546;PMS5003;45368;55.002;-1.592;2022-10-17T07:14:20;1;0;
59546;PMS5003;45368;55.002;-1.592;2022-10-17T07:16:47;4;2;
59546;PMS5003;45368;55.002;-1.592;2022-10-17T07:19:14;5;2;
59546;PMS5003;45368;55.002;-1.592;2022-10-17T07:21:40;2;0;
59546;PMS5003;45368;55.002;-1.592;2022-10-17T07:24:07;1;1;
59546;PMS5003;45368;55.002;-1.592;2022-10-17T07:26:34;4;3;
59546;PMS5003;45368;55.002;-1.592;2022-10-17T07:29:02;4;2;
59546;PMS5003;45368;55.002;-1.592;2022-10-17T07:31:28;3;3;
59546;PMS5003;45368;55.002;-1.592;2022-10-17T07:33:55;2;2;
59546;PMS5003;45368;55.002;-1.592;2022-10-17T07:36:24;6;3;
59546;PMS5003;45368;55.002;-1.592;2022-10-17T07:38:52;4;2;
59546;PMS5003;45368;55.002;-1.592;2022-10-17T07:41:19;2;2;
59546;PMS5003;45368;55.002;-1.592;2022-10-17T07:43:46;1;1;
59546;PMS5003;45368;55.002;-1.592;2022-10-17T07:46:13;3;1;
59546;PMS5003;45368;55.002;-1.592;2022-10-17T07:48:40;0;0;
59546;PMS5003;45368;55.002;-1.592;2022-10-17T07:51:08;5;2;
59546;PMS5003;45368;55.002;-1.592;2022-10-17T07:53:35;3;1;
59546;PMS5003;45368;55.002;-1.592;2022-10-17T07:56:04;3;1;
59546;PMS5003;45368;55.002;-1.592;2022-10-17T07:58:31;3;1;
59546;PMS5003;45368;55.002;-1.592;2022-10-17T08:01:00;1;0;
59546;PMS5003;45368;55.002;-1.592;2022-10-17T08:03:28;1;0;
59546;PMS5003;45368;55.002;-1.592;2022-10-17T08:05:57;3;2;
59546;PMS5003;45368;55.002;-1.592;2022-10-17T08:08:25;0;0;
59546;PMS5003;45368;55.002;-1.592;2022-10-17T08:10:52;1;1;
59546;PMS5003;45368;55.002;-1.592;2022-10-17T08:13:20;1;1;
59546;PMS5003;45368;55.002;-1.592;2022-10-17T08:15:48;1;1;
59546;PMS5003;45368;55.002;-1.592;2022-10-17T08:18:15;3;2;
59546;PMS5003;45368;55.002;-1.592;2022-10-17T08:20:41;3;1;
59546;PMS5003;45368;55.002;-1.592;2022-10-17T08:23:09;3;1;
59546;PMS5003;45368;55.002;-1.592;2022-10-17T08:25:37;1;0;
59546;PMS5003;45368;55.002;-1.592;2022-10-17T08:28:05;3;2;
59546;PMS5003;45368;55.002;-1.592;2022-10-17T08:30:32;3;1;
59546;PMS5003;45368;55.002;-1.592;2022-10-17T08:32:59;1;1;
59546;PMS5003;45368;55.002;-1.592;2022-10-17T08:35:26;2;0;
59546;PMS5003;45368;55.002;-1.592;2022-10-17T08:37:54;1;1;
59546;PMS5003;45368;55.002;-1.592;2022-10-17T08:40:21;0;0;
59546;PMS5003;45368;55.002;-1.592;2022-10-17T08:42:57;1;1;
59546;PMS5003;45368;55.002;-1.592;2022-10-17T08:45:35;3;1;
59546;PMS5003;45368;55.002;-1.592;2022-10-17T08:48:08;3;2;
59546;PMS5003;45368;55.002;-1.592;2022-10-17T08:50:39;2;1;
59546;PMS5003;45368;55.002;-1.592;2022-10-17T08:53:13;3;0;
59546;PMS5003;45368;55.002;-1.592;2022-10-17T08:55:45;3;2;
59546;PMS5003;45368;55.002;-1.592;2022-10-17T08:58:16;7;2;
59546;PMS5003;45368;55.002;-1.592;2022-10-17T09:00:47;4;3;
59546;PMS5003;45368;55.002;-1.592;2022-10-17T09:03:25;2;2;
59546;PMS5003;45368;55.002;-1.592;2022-10-17T09:06:09;3;2;
59546;PMS5003;45368;55.002;-1.592;2022-10-17T09:08:44;4;2;
59546;PMS5003;45368;55.002;-1.592;2022-10-17T09:11:24;3;2;
59546;PMS5003;45368;55.002;-1.592;2022-10-17T09:14:07;2;2;
59546;PMS5003;45368;55.002;-1.592;2022-10-17T09:16:51;2;2;
59546;PMS5003;45368;55.002;-1.592;2022-10-17T09:19:31;2;1;
59546;PMS5003;45368;55.002;-1.592;2022-10-17T09:22:02;2;0;
59546;PMS5003;45368;55.002;-1.592;2022-10-17T09:24:34;3;2;
59546;PMS5003;45368;55.002;-1.592;2022-10-17T09:27:10;2;1;
59546;PMS5003;45368;55.002;-1.592;2022-10-17T09:29:48;7;2;
59546;PMS5003;45368;55.002;-1.592;2022-10-17T09:32:20;2;1;
59546;PMS5003;45368;55.002;-1.592;2022-10-17T09:34:50;3;2;
59546;PMS5003;45368;55.002;-1.592;2022-10-17T09:37:18;0;0;
59546;PMS5003;45368;55.002;-1.592;2022-10-17T09:39:48;3;1;
59546;PMS5003;45368;55.002;-1.592;2022-10-17T09:42:15;2;1;
59546;PMS5003;45368;55.002;-1.592;2022-10-17T09:44:46;2;2;
59546;PMS5003;45368;55.002;-1.592;2022-10-17T09:47:21;3;1;
59546;PMS5003;45368;55.002;-1.592;2022-10-17T09:49:53;1;0;
59546;PMS5003;45368;55.002;-1.592;2022-10-17T09:52:23;2;2;
59546;PMS5003;45368;55.002;-1.592;2022-10-17T09:54:55;4;1;
59546;PMS5003;45368;55.002;-1.592;2022-10-17T09:57:25;2;1;
59546;PMS5003;45368;55.002;-1.592;2022-10-17T09:59:56;3;1;
59546;PMS5003;45368;55.002;-1.592;2022-10-17T10:02:25;3;1;
59546;PMS5003;45368;55.002;-1.592;2022-10-17T10:04:55;1;1;
59546;PMS5003;45368;55.002;-1.592;2022-10-17T10:07:26;1;0;
59546;PMS5003;45368;55.002;-1.592;2022-10-17T10:09:54;0;0;
59546;PMS5003;45368;55.002;-1.592;2022-10-17T10:12:24;1;1;
59546;PMS5003;45368;55.002;-1.592;2022-10-17T10:14:52;1;0;
59546;PMS5003;45368;55.002;-1.592;2022-10-17T10:17:38;2;1;
59546;PMS5003;45368;55.002;-1.592;2022-10-17T10:20:24;4;3;
59546;PMS5003;45368;55.002;-1.592;2022-10-17T10:23:26;1;0;
59546;PMS5003;45368;55.002;-1.592;2022-10-17T10:25:54;0;0;
59546;PMS5003;45368;55.002;-1.592;2022-10-17T10:28:25;3;1;
59546;PMS5003;45368;55.002;-1.592;2022-10-17T10:30:55;4;1;
59546;PMS5003;45368;55.002;-1.592;2022-10-17T10:33:26;0;0;
59546;PMS5003;45368;55.002;-1.592;2022-10-17T10:35:56;0;0;
59546;PMS5003;45368;55.002;-1.592;2022-10-17T10:38:26;3;1;
59546;PMS5003;45368;55.002;-1.592;2022-10-17T10:40:54;2;1;
59546;PMS5003;45368;55.002;-1.592;2022-10-17T10:43:29;2;0;
59546;PMS5003;45368;55.002;-1.592;2022-10-17T10:46:01;3;0;
59546;PMS5003;45368;55.002;-1.592;2022-10-17T10:48:48;3;2;
59546;PMS5003;45368;55.002;-1.592;2022-10-17T10:51:18;1;1;
59546;PMS5003;45368;55.002;-1.592;2022-10-17T10:53:55;2;0;
59546;PMS5003;45368;55.002;-1.592;2022-10-17T10:56:29;4;4;
59546;PMS5003;45368;55.002;-1.592;2022-10-17T10:59:03;1;1;
59546;PMS5003;45368;55.002;-1.592;2022-10-17T11:01:39;3;0;
59546;PMS5003;45368;55.002;-1.592;2022-10-17T11:04:14;1;1;
59546;PMS5003;45368;55.002;-1.592;2022-10-17T11:06:49;1;0;
59546;PMS5003;45368;55.002;-1.592;2022-10-17T11:09:23;1;0;
59546;PMS5003;45368;55.002;-1.592;2022-10-17T11:11:57;3;0;
59546;PMS5003;45368;55.002;-1.592;2022-10-17T11:14:33;2;0;
59546;PMS5003;45368;55.002;-1.592;2022-10-17T11:17:07;1;1;
59546;PMS5003;45368;55.002;-1.592;2022-10-17T11:19:43;0;0;
59546;PMS5003;45368;55.002;-1.592;2022-10-17T11:22:15;4;1;
59546;PMS5003;45368;55.002;-1.592;2022-10-17T11:24:49;2;1;
59546;PMS5003;45368;55.002;-1.592;2022-10-17T11:27:21;1;1;
59546;PMS5003;45368;55.002;-1.592;2022-10-17T11:29:50;1;0;
59546;PMS5003;45368;55.002;-1.592;2022-10-17T11:32:18;0;0;
59546;PMS5003;45368;55.002;-1.592;2022-10-17T11:34:52;1;0;
59546;PMS5003;45368;55.002;-1.592;2022-10-17T11:37:26;0;0;
59546;PMS5003;45368;55.002;-1.592;2022-10-17T11:39:59;2;1;
59546;PMS5003;45368;55.002;-1.592;2022-10-17T11:42:30;2;1;
59546;PMS5003;45368;55.002;-1.592;2022-10-17T11:45:04;1;0;
59546;PMS5003;45368;55.002;-1.592;2022-10-17T11:47:38;4;2;
59546;PMS5003;45368;55.002;-1.592;2022-10-17T11:50:15;0;0;
59546;PMS5003;45368;55.002;-1.592;2022-10-17T11:52:48;1;0;
59546;PMS5003;45368;55.002;-1.592;2022-10-17T11:55:21;2;0;
59546;PMS5003;45368;55.002;-1.592;2022-10-17T11:57:54;2;1;
59546;PMS5003;45368;55.002;-1.592;2022-10-17T12:00:33;1;0;
59546;PMS5003;45368;55.002;-1.592;2022-10-17T12:03:18;3;1;
59546;PMS5003;45368;55.002;-1.592;2022-10-17T12:05:56;1;1;
59546;PMS5003;45368;55.002;-1.592;2022-10-17T12:08:29;2;1;
59546;PMS5003;45368;55.002;-1.592;2022-10-17T12:11:02;2;1;
59546;PMS5003;45368;55.002;-1.592;2022-10-17T12:13:52;2;0;
59546;PMS5003;45368;55.002;-1.592;2022-10-17T12:16:37;4;1;
59546;PMS5003;45368;55.002;-1.592;2022-10-17T12:19:14;2;0;
59546;PMS5003;45368;55.002;-1.592;2022-10-17T12:21:52;5;1;
59546;PMS5003;45368;55.002;-1.592;2022-10-17T12:24:25;3;1;
59546;PMS5003;45368;55.002;-1.592;2022-10-17T12:27:20;1;0;
59546;PMS5003;45368;55.002;-1.592;2022-10-17T12:29:49;4;1;
59546;PMS5003;45368;55.002;-1.592;2022-10-17T12:32:23;1;1;
59546;PMS5003;45368;55.002;-1.592;2022-10-17T12:34:51;1;1;
59546;PMS5003;45368;55.002;-1.592;2022-10-17T12:38:25;5;2;
59546;PMS5003;45368;55.002;-1.592;2022-10-17T12:40:55;1;0;
59546;PMS5003;45368;55.002;-1.592;2022-10-17T12:43:35;2;2;
59546;PMS5003;45368;55.002;-1.592;2022-10-17T12:46:08;1;0;
59546;PMS5003;45368;55.002;-1.592;2022-10-17T12:49:41;2;1;
59546;PMS5003;45368;55.002;-1.592;2022-10-17T12:52:16;1;0;
59546;PMS5003;45368;55.002;-1.592;2022-10-17T12:54:48;9;2;
59546;PMS5003;45368;55.002;-1.592;2022-10-17T12:57:20;2;2;
59546;PMS5003;45368;55.002;-1.592;2022-10-17T12:59:52;2;1;
59546;PMS5003;45368;55.002;-1.592;2022-10-17T13:02:20;3;1;
59546;PMS5003;45368;55.002;-1.592;2022-10-17T13:04:49;4;1;
59546;PMS5003;45368;55.002;-1.592;2022-10-17T13:07:32;1;1;
59546;PMS5003;45368;55.002;-1.592;2022-10-17T13:10:02;2;1;
59546;PMS5003;45368;55.002;-1.592;2022-10-17T13:12:31;0;0;
59546;PMS5003;45368;55.002;-1.592;2022-10-17T13:15:05;1;0;
59546;PMS5003;45368;55.002;-1.592;2022-10-17T13:17:33;1;1;
59546;PMS5003;45368;55.002;-1.592;2022-10-17T13:20:01;2;1;
59546;PMS5003;45368;55.002;-1.592;2022-10-17T13:22:30;2;1;
59546;PMS5003;45368;55.002;-1.592;2022-10-17T13:25:06;1;1;
59546;PMS5003;45368;55.002;-1.592;2022-10-17T13:27:39;3;2;
59546;PMS5003;45368;55.002;-1.592;2022-10-17T13:30:25;4;1;
59546;PMS5003;45368;55.002;-1.592;2022-10-17T13:32:53;1;0;
59546;PMS5003;45368;55.002;-1.592;2022-10-17T13:35:22;4;2;
59546;PMS5003;45368;55.002;-1.592;2022-10-17T13:37:52;2;1;
59546;PMS5003;45368;55.002;-1.592;2022-10-17T13:40:21;2;1;
59546;PMS5003;45368;55.002;-1.592;2022-10-17T13:42:50;3;2;
59546;PMS5003;45368;55.002;-1.592;2022-10-17T13:45:18;7;1;
59546;PMS5003;45368;55.002;-1.592;2022-10-17T13:47:50;1;0;
59546;PMS5003;45368;55.002;-1.592;2022-10-17T13:50:19;2;1;
59546;PMS5003;45368;55.002;-1.592;2022-10-17T13:53:04;3;2;
59546;PMS5003;45368;55.002;-1.592;2022-10-17T13:55:33;4;3;
59546;PMS5003;45368;55.002;-1.592;2022-10-17T13:58:09;1;0;
59546;PMS5003;45368;55.002;-1.592;2022-10-17T14:00:42;2;1;
59546;PMS5003;45368;55.002;-1.592;2022-10-17T14:03:10;4;1;
59546;PMS5003;45368;55.002;-1.592;2022-10-17T14:05:57;2;1;
59546;PMS5003;45368;55.002;-1.592;2022-10-17T14:08:27;2;1;
59546;PMS5003;45368;55.002;-1.592;2022-10-17T14:10:56;1;1;
59546;PMS5003;45368;55.002;-1.592;2022-10-17T14:13:25;4;3;
59546;PMS5003;45368;55.002;-1.592;2022-10-17T14:15:54;1;0;
59546;PMS5003;45368;55.002;-1.592;2022-10-17T14:18:30;2;0;
59546;PMS5003;45368;55.002;-1.592;2022-10-17T14:20:59;1;0;
59546;PMS5003;45368;55.002;-1.592;2022-10-17T14:23:28;3;1;
59546;PMS5003;45368;55.002;-1.592;2022-10-17T14:26:14;2;0;
59546;PMS5003;45368;55.002;-1.592;2022-10-17T14:28:43;3;1;
59546;PMS5003;45368;55.002;-1.592;2022-10-17T14:31:18;4;2;
59546;PMS5003;45368;55.002;-1.592;2022-10-17T14:33:54;0;0;
59546;PMS5003;45368;55.002;-1.592;2022-10-17T14:36:30;2;2;
59546;PMS5003;45368;55.002;-1.592;2022-10-17T14:39:00;2;1;
59546;PMS5003;45368;55.002;-1.592;2022-10-17T14:41:29;1;1;
59546;PMS5003;45368;55.002;-1.592;2022-10-17T14:43:58;3;1;
59546;PMS5003;45368;55.002;-1.592;2022-10-17T14:46:28;2;0;
59546;PMS5003;45368;55.002;-1.592;2022-10-17T14:48:57;1;1;
59546;PMS5003;45368;55.002;-1.592;2022-10-17T14:51:32;1;0;
59546;PMS5003;45368;55.002;-1.592;2022-10-17T14:54:02;2;1;
59546;PMS5003;45368;55.002;-1.592;2022-10-17T14:56:42;3;1;
59546;PMS5003;45368;55.002;-1.592;2022-10-17T14:59:13;3;1;
59546;PMS5003;45368;55.002;-1.592;2022-10-17T15:01:41;3;1;
59546;PMS5003;45368;55.002;-1.592;2022-10-17T15:04:08;1;0;
59546;PMS5003;45368;55.002;-1.592;2022-10-17T15:06:35;1;0;
59546;PMS5003;45368;55.002;-1.592;2022-10-17T15:09:02;2;1;
59546;PMS5003;45368;55.002;-1.592;2022-10-17T15:11:29;0;0;
59546;PMS5003;45368;55.002;-1.592;2022-10-17T15:13:57;1;0;
59546;PMS5003;45368;55.002;-1.592;2022-10-17T15:16:25;0;0;
59546;PMS5003;45368;55.002;-1.592;2022-10-17T15:18:56;1;1;
59546;PMS5003;45368;55.002;-1.592;2022-10-17T15:21:24;0;0;
59546;PMS5003;45368;55.002;-1.592;2022-10-17T15:23:53;0;0;
59546;PMS5003;45368;55.002;-1.592;2022-10-17T15:26:21;4;0;
59546;PMS5003;45368;55.002;-1.592;2022-10-17T15:28:51;4;1;
59546;PMS5003;45368;55.002;-1.592;2022-10-17T15:31:19;0;0;
59546;PMS5003;45368;55.002;-1.592;2022-10-17T15:33:47;0;0;
59546;PMS5003;45368;55.002;-1.592;2022-10-17T15:36:17;0;0;
59546;PMS5003;45368;55.002;-1.592;2022-10-17T15:38:46;4;2;
59546;PMS5003;45368;55.002;-1.592;2022-10-17T15:41:13;1;0;
59546;PMS5003;45368;55.002;-1.592;2022-10-17T15:43:40;3;1;
59546;PMS5003;45368;55.002;-1.592;2022-10-17T15:46:10;3;1;
59546;PMS5003;45368;55.002;-1.592;2022-10-17T15:48:39;1;1;
59546;PMS5003;45368;55.002;-1.592;2022-10-17T15:51:07;1;0;
59546;PMS5003;45368;55.002;-1.592;2022-10-17T15:53:35;1;0;
59546;PMS5003;45368;55.002;-1.592;2022-10-17T15:56:02;2;1;
59546;PMS5003;45368;55.002;-1.592;2022-10-17T15:58:33;1;1;
59546;PMS5003;45368;55.002;-1.592;2022-10-17T16:01:02;5;1;
59546;PMS5003;45368;55.002;-1.592;2022-10-17T16:03:31;5;2;
59546;PMS5003;45368;55.002;-1.592;2022-10-17T16:05:59;2;1;
59546;PMS5003;45368;55.002;-1.592;2022-10-17T16:08:27;2;1;
59546;PMS5003;45368;55.002;-1.592;2022-10-17T16:10:53;4;0;
59546;PMS5003;45368;55.002;-1.592;2022-10-17T16:13:22;2;1;
59546;PMS5003;45368;55.002;-1.592;2022-10-17T16:15:50;0;0;
59546;PMS5003;45368;55.002;-1.592;2022-10-17T16:18:17;2;2;
59546;PMS5003;45368;55.002;-1.592;2022-10-17T16:20:44;1;1;
59546;PMS5003;45368;55.002;-1.592;2022-10-17T16:23:12;2;0;
59546;PMS5003;45368;55.002;-1.592;2022-10-17T16:25:40;1;0;
59546;PMS5003;45368;55.002;-1.592;2022-10-17T16:28:07;0;0;
59546;PMS5003;45368;55.002;-1.592;2022-10-17T16:30:37;4;3;
59546;PMS5003;45368;55.002;-1.592;2022-10-17T16:33:08;3;1;
59546;PMS5003;45368;55.002;-1.592;2022-10-17T16:35:36;3;1;
59546;PMS5003;45368;55.002;-1.592;2022-10-17T16:38:03;1;0;
59546;PMS5003;45368;55.002;-1.592;2022-10-17T16:40:32;2;1;
59546;PMS5003;45368;55.002;-1.592;2022-10-17T16:43:03;1;0;
59546;PMS5003;45368;55.002;-1.592;2022-10-17T16:45:30;1;0;
59546;PMS5003;45368;55.002;-1.592;2022-10-17T16:47:57;3;2;
59546;PMS5003;45368;55.002;-1.592;2022-10-17T16:50:25;2;1;
59546;PMS5003;45368;55.002;-1.592;2022-10-17T16:52:54;1;0;